createdAt,value
2022-08-19T00:00:22.899Z,99477.13
2022-08-19T00:01:29.173Z,99494.41
2022-08-19T00:02:35.421Z,99493.94
2022-08-19T00:03:37.692Z,99497.13
2022-08-19T00:04:41.514Z,99499.13
2022-08-19T00:05:43.770Z,99496.31
2022-08-19T00:06:48.005Z,99496.66
2022-08-19T00:07:51.639Z,99498.69
2022-08-19T00:08:53.957Z,99496.22
2022-08-19T00:09:56.973Z,99503.84
2022-08-19T00:10:59.951Z,99503.03
2022-08-19T00:12:03.189Z,99498.59
2022-08-19T00:13:05.619Z,99498.97
2022-08-19T00:14:11.265Z,99508.56
2022-08-19T00:15:16.922Z,99516.22
2022-08-19T00:16:25.132Z,99509.31
2022-08-19T00:17:28.477Z,99510.97
2022-08-19T00:18:30.738Z,99504.03
2022-08-19T00:19:33.893Z,99512.81
2022-08-19T00:20:36.083Z,99502.75
2022-08-19T00:21:40.607Z,99509.56
2022-08-19T00:22:43.678Z,99513.94
2022-08-19T00:23:45.987Z,99513.09
2022-08-19T00:24:49.567Z,99511.47
2022-08-19T00:25:53.272Z,99516.63
2022-08-19T00:26:57.903Z,99512.19
2022-08-19T00:28:21.688Z,99515.38
2022-08-19T00:29:25.765Z,99522.16
2022-08-19T00:30:30.856Z,99512.13
2022-08-19T00:31:33.843Z,99516.47
2022-08-19T00:32:36.077Z,99520.47
2022-08-19T00:33:39.135Z,99513.19
2022-08-19T00:34:41.429Z,99522.81
2022-08-19T00:35:43.761Z,99522.38
2022-08-19T00:36:47.567Z,99518.34
2022-08-19T00:37:50.715Z,99517.09
2022-08-19T00:38:53.992Z,99525.09
2022-08-19T00:39:57.024Z,99524.25
2022-08-19T00:40:59.950Z,99525.47
2022-08-19T00:42:02.968Z,99525.47
2022-08-19T00:43:14.168Z,99529.44
2022-08-19T00:44:27.058Z,99533.44
2022-08-19T00:45:32.782Z,99540.59
2022-08-19T00:46:41.686Z,99540.97
2022-08-19T00:47:47.392Z,99542.13
2022-08-19T00:48:49.603Z,99550.16
2022-08-19T00:49:56.821Z,99545.69
2022-08-19T00:50:59.589Z,99550.84
2022-08-19T00:52:13.253Z,99555.66
2022-08-19T00:53:20.212Z,99557.66
2022-08-19T00:54:26.537Z,99541.13
2022-08-19T00:55:34.455Z,99538.31
2022-08-19T00:56:38.505Z,99535.88
2022-08-19T00:57:49.096Z,99525.00
2022-08-19T00:58:51.467Z,99528.16
2022-08-19T01:00:02.680Z,99524.53
2022-08-19T01:01:06.003Z,99524.88
2022-08-19T01:02:09.369Z,99523.25
2022-08-19T01:03:14.987Z,99522.44
2022-08-19T01:04:17.311Z,99524.41
2022-08-19T01:05:26.054Z,99519.16
2022-08-19T01:06:30.738Z,99509.91
2022-08-19T01:07:38.136Z,99509.91
2022-08-19T01:08:40.666Z,99507.09
2022-08-19T01:09:42.974Z,99517.06
2022-08-19T01:10:56.993Z,99512.63
2022-08-19T01:11:59.473Z,99525.50
2022-08-19T01:13:02.985Z,99518.63
2022-08-19T01:14:06.187Z,99530.66
2022-08-19T01:15:11.989Z,99522.22
2022-08-19T01:16:15.055Z,99522.22
2022-08-19T01:17:17.777Z,99527.06
2022-08-19T01:18:20.897Z,99528.22
2022-08-19T01:19:43.806Z,99532.22
2022-08-19T01:20:48.339Z,99531.03
2022-08-19T01:22:01.548Z,99526.59
2022-08-19T01:23:16.992Z,99533.03
2022-08-19T01:24:19.172Z,99531.03
2022-08-19T01:25:27.488Z,99539.03
2022-08-19T01:26:31.890Z,99532.22
2022-08-19T01:27:44.330Z,99529.75
2022-08-19T01:28:49.888Z,99532.56
2022-08-19T01:29:54.586Z,99527.78
2022-08-19T01:30:57.624Z,99532.94
2022-08-19T01:32:02.230Z,99538.56
2022-08-19T01:33:06.760Z,99538.94
2022-08-19T01:34:09.623Z,99541.38
2022-08-19T01:35:13.403Z,99544.56
2022-08-19T01:36:23.726Z,99543.72
2022-08-19T01:37:27.355Z,99544.91
2022-08-19T01:38:31.432Z,99549.69
2022-08-19T01:39:34.086Z,99548.91
2022-08-19T01:40:39.309Z,99551.72
2022-08-19T01:41:42.013Z,99551.72
2022-08-19T01:42:44.193Z,99552.84
2022-08-19T01:44:03.847Z,99546.09
2022-08-19T01:45:09.683Z,99546.41
2022-08-19T01:46:12.038Z,99545.59
2022-08-19T01:47:14.263Z,99543.59
2022-08-19T01:48:16.567Z,99535.97
2022-08-19T01:49:21.875Z,99537.97
2022-08-19T01:50:25.151Z,99535.19
2022-08-19T01:51:28.189Z,99536.34
2022-08-19T01:52:31.147Z,99534.34
2022-08-19T01:53:37.160Z,99532.69
2022-08-19T01:54:39.353Z,99530.72
2022-08-19T01:55:43.952Z,99529.88
2022-08-19T01:56:46.136Z,99535.88
2022-08-19T01:57:58.257Z,99530.25
2022-08-19T01:59:07.223Z,99532.25
2022-08-19T02:00:13.177Z,99539.53
2022-08-19T02:01:15.387Z,99535.50
2022-08-19T02:02:17.758Z,99542.34
2022-08-19T02:03:19.983Z,99538.31
2022-08-19T02:04:22.312Z,99536.72
2022-08-19T02:05:25.071Z,99537.88
2022-08-19T02:06:28.843Z,99548.28
2022-08-19T02:07:31.055Z,99545.47
2022-08-19T02:08:36.985Z,99546.31
2022-08-19T02:09:39.426Z,99544.66
2022-08-19T02:10:44.507Z,99544.66
2022-08-19T02:11:46.797Z,99537.03
2022-08-19T02:12:50.582Z,99534.59
2022-08-19T02:13:53.430Z,99543.03
2022-08-19T02:14:55.638Z,99530.16
2022-08-19T02:15:58.124Z,99523.34
2022-08-19T02:17:00.369Z,99524.19
2022-08-19T02:18:02.684Z,99524.19
2022-08-19T02:19:05.415Z,99523.34
2022-08-19T02:20:17.894Z,99521.72
2022-08-19T02:21:23.271Z,99520.91
2022-08-19T02:22:29.543Z,99516.44
2022-08-19T02:23:32.516Z,99510.81
2022-08-19T02:24:35.532Z,99504.41
2022-08-19T02:25:38.132Z,99501.59
2022-08-19T02:26:40.698Z,99495.97
2022-08-19T02:27:45.048Z,99496.31
2022-08-19T02:28:47.399Z,99504.75
2022-08-19T02:29:51.517Z,99505.13
2022-08-19T02:30:53.738Z,99513.56
2022-08-19T02:31:55.977Z,99523.16
2022-08-19T02:32:59.028Z,99523.16
2022-08-19T02:34:02.127Z,99525.97
2022-08-19T02:35:12.278Z,99535.22
2022-08-19T02:36:16.953Z,99540.84
2022-08-19T02:37:43.269Z,99545.66
2022-08-19T02:38:47.172Z,99542.84
2022-08-19T02:39:56.914Z,99541.69
2022-08-19T02:41:03.059Z,99540.84
2022-08-19T02:42:05.622Z,99535.22
2022-08-19T02:43:09.878Z,99532.41
2022-08-19T02:44:22.884Z,99533.25
2022-08-19T02:45:35.397Z,99534.41
2022-08-19T02:46:37.788Z,99532.75
2022-08-19T02:47:40.256Z,99537.22
2022-08-19T02:48:42.464Z,99538.03
2022-08-19T02:49:44.719Z,99536.38
2022-08-19T02:50:53.221Z,99543.66
2022-08-19T02:51:55.940Z,99547.63
2022-08-19T02:52:58.563Z,99550.09
2022-08-19T02:54:01.135Z,99544.00
2022-08-19T02:55:04.639Z,99540.03
2022-08-19T02:56:08.901Z,99542.84
2022-08-19T02:57:11.251Z,99545.66
2022-08-19T02:58:14.700Z,99545.66
2022-08-19T02:59:16.915Z,99551.28
2022-08-19T03:00:19.342Z,99558.06
2022-08-19T03:01:25.575Z,99554.44
2022-08-19T03:02:28.539Z,99558.88
2022-08-19T03:03:30.782Z,99554.09
2022-08-19T03:04:32.987Z,99544.81
2022-08-19T03:05:56.167Z,99542.38
2022-08-19T03:07:02.548Z,99542.38
2022-08-19T03:08:16.430Z,99549.63
2022-08-19T03:09:20.915Z,99544.81
2022-08-19T03:10:23.276Z,99556.44
2022-08-19T03:11:28.558Z,99550.44
2022-08-19T03:12:30.763Z,99553.25
2022-08-19T03:13:33.221Z,99548.00
2022-08-19T03:14:35.981Z,99549.63
2022-08-19T03:15:41.482Z,99552.81
2022-08-19T03:16:52.177Z,99545.19
2022-08-19T03:17:54.352Z,99539.13
2022-08-19T03:19:00.166Z,99541.56
2022-08-19T03:20:02.522Z,99539.13
2022-08-19T03:21:04.985Z,99536.31
2022-08-19T03:22:07.279Z,99532.66
2022-08-19T03:23:09.592Z,99534.31
2022-08-19T03:24:12.429Z,99539.13
2022-08-19T03:25:14.625Z,99537.13
2022-08-19T03:26:17.283Z,99539.91
2022-08-19T03:27:19.573Z,99534.31
2022-08-19T03:28:22.469Z,99535.94
2022-08-19T03:29:30.934Z,99533.13
2022-08-19T03:30:33.984Z,99544.00
2022-08-19T03:31:44.282Z,99538.38
2022-08-19T03:32:57.319Z,99536.75
2022-08-19T03:33:59.663Z,99540.03
2022-08-19T03:35:02.303Z,99539.19
2022-08-19T03:36:12.005Z,99539.19
2022-08-19T03:37:14.493Z,99544.81
2022-08-19T03:38:16.671Z,99545.66
2022-08-19T03:39:19.020Z,99551.28
2022-08-19T03:40:21.378Z,99546.47
2022-08-19T03:41:26.562Z,99550.09
2022-08-19T03:42:49.384Z,99548.09
2022-08-19T03:43:53.443Z,99549.75
2022-08-19T03:44:55.756Z,99547.75
2022-08-19T03:46:13.140Z,99546.94
2022-08-19T03:47:16.553Z,99553.38
2022-08-19T03:48:18.800Z,99552.19
2022-08-19T03:49:28.447Z,99555.38
2022-08-19T03:50:31.332Z,99550.56
2022-08-19T03:51:37.366Z,99542.94
2022-08-19T03:52:40.523Z,99551.03
2022-08-19T03:53:50.062Z,99555.00
2022-08-19T03:54:54.007Z,99552.19
2022-08-19T03:55:57.189Z,99557.00
2022-08-19T03:56:59.484Z,99553.00
2022-08-19T03:58:02.181Z,99559.47
2022-08-19T03:59:07.193Z,99563.06
2022-08-19T04:00:13.462Z,99563.88
2022-08-19T04:01:19.722Z,99561.91
2022-08-19T04:02:22.851Z,99566.69
2022-08-19T04:03:27.824Z,99561.91
2022-08-19T04:04:30.105Z,99571.16
2022-08-19T04:05:34.177Z,99563.53
2022-08-19T04:06:39.869Z,99568.34
2022-08-19T04:07:42.798Z,99566.38
2022-08-19T04:08:47.553Z,99567.97
2022-08-19T04:09:50.164Z,99565.16
2022-08-19T04:10:52.726Z,99564.34
2022-08-19T04:11:56.703Z,99559.53
2022-08-19T04:12:58.885Z,99564.00
2022-08-19T04:14:01.593Z,99560.38
2022-08-19T04:15:07.492Z,99560.38
2022-08-19T04:16:11.047Z,99565.63
2022-08-19T04:17:14.498Z,99565.63
2022-08-19T04:18:16.778Z,99566.81
2022-08-19T04:19:19.645Z,99565.63
2022-08-19T04:20:21.822Z,99563.63
2022-08-19T04:21:27.052Z,99554.38
2022-08-19T04:22:29.236Z,99558.84
2022-08-19T04:23:32.651Z,99552.38
2022-08-19T04:24:36.623Z,99555.19
2022-08-19T04:25:43.906Z,99544.78
2022-08-19T04:26:47.100Z,99550.41
2022-08-19T04:27:49.611Z,99547.97
2022-08-19T04:28:53.034Z,99541.97
2022-08-19T04:29:56.186Z,99543.13
2022-08-19T04:30:59.108Z,99550.78
2022-08-19T04:32:08.443Z,99560.81
2022-08-19T04:33:14.285Z,99551.94
2022-08-19T04:34:19.310Z,99560.38
2022-08-19T04:35:24.822Z,99564.81
2022-08-19T04:36:30.458Z,99562.34
2022-08-19T04:37:35.917Z,99566.81
2022-08-19T04:38:38.135Z,99563.53
2022-08-19T04:40:02.267Z,99566.38
2022-08-19T04:41:23.756Z,99553.09
2022-08-19T04:42:41.244Z,99553.09
2022-08-19T04:43:49.537Z,99556.72
2022-08-19T04:44:51.933Z,99555.91
2022-08-19T04:45:56.879Z,99558.72
2022-08-19T04:47:11.365Z,99557.94
2022-08-19T04:48:26.372Z,99569.50
2022-08-19T04:49:29.152Z,99569.16
2022-08-19T04:50:31.353Z,99577.59
2022-08-19T04:51:34.542Z,99582.41
2022-08-19T04:52:36.770Z,99572.31
2022-08-19T04:53:40.158Z,99577.94
2022-08-19T04:54:42.443Z,99580.75
2022-08-19T04:55:44.753Z,99577.13
2022-08-19T04:56:46.999Z,99577.13
2022-08-19T04:57:49.980Z,99569.88
2022-08-19T04:58:52.646Z,99573.53
2022-08-19T04:59:56.646Z,99575.13
2022-08-19T05:01:01.247Z,99573.53
2022-08-19T05:02:04.734Z,99577.13
2022-08-19T05:03:07.664Z,99581.13
2022-08-19T05:04:10.380Z,99579.13
2022-08-19T05:05:13.290Z,99579.13
2022-08-19T05:06:17.203Z,99584.75
2022-08-19T05:07:19.954Z,99576.34
2022-08-19T05:08:30.713Z,99579.13
2022-08-19T05:09:58.663Z,99573.53
2022-08-19T05:10:56.194Z,99574.69
2022-08-19T05:11:58.396Z,99574.69
2022-08-19T05:13:00.607Z,99571.88
2022-08-19T05:14:02.938Z,99576.69
2022-08-19T05:15:06.908Z,99569.06
2022-08-19T05:16:10.371Z,99576.69
2022-08-19T05:17:27.267Z,99577.50
2022-08-19T05:18:49.319Z,99568.25
2022-08-19T05:20:09.902Z,99573.88
2022-08-19T05:21:36.359Z,99579.50
2022-08-19T05:22:38.692Z,99581.47
2022-08-19T05:23:41.583Z,99585.13
2022-08-19T05:25:02.559Z,99588.28
2022-08-19T05:26:06.096Z,99596.72
2022-08-19T05:27:08.319Z,99599.50
2022-08-19T05:28:10.512Z,99595.09
2022-08-19T05:29:14.839Z,99596.25
2022-08-19T05:30:18.006Z,99600.72
2022-08-19T05:31:21.323Z,99588.63
2022-08-19T05:32:24.495Z,99595.09
2022-08-19T05:33:26.720Z,99605.50
2022-08-19T05:34:28.995Z,99606.66
2022-08-19T05:35:34.723Z,99605.88
2022-08-19T05:36:41.570Z,99615.09
2022-08-19T05:37:43.827Z,99615.09
2022-08-19T05:38:46.017Z,99617.13
2022-08-19T05:39:51.431Z,99615.94
2022-08-19T05:40:53.984Z,99621.56
2022-08-19T05:42:05.248Z,99621.56
2022-08-19T05:43:09.098Z,99619.91
2022-08-19T05:44:11.501Z,99629.16
2022-08-19T05:45:13.773Z,99633.63
2022-08-19T05:46:27.679Z,99637.25
2022-08-19T05:47:30.390Z,99640.09
2022-08-19T05:48:33.894Z,99640.53
2022-08-19T05:49:38.006Z,99646.16
2022-08-19T05:50:41.948Z,99643.34
2022-08-19T05:51:44.172Z,99647.78
2022-08-19T05:52:50.258Z,99655.41
2022-08-19T05:53:53.326Z,99659.03
2022-08-19T05:54:57.001Z,99660.69
2022-08-19T05:55:59.352Z,99651.41
2022-08-19T05:57:02.217Z,99662.28
2022-08-19T05:58:04.439Z,99658.69
2022-08-19T05:59:11.642Z,99660.69
2022-08-19T06:00:14.800Z,99661.50
2022-08-19T06:01:19.350Z,99664.31
2022-08-19T06:02:21.617Z,99663.84
2022-08-19T06:03:24.080Z,99667.91
2022-08-19T06:04:26.489Z,99673.91
2022-08-19T06:05:28.704Z,99675.91
2022-08-19T06:06:31.044Z,99673.09
2022-08-19T06:07:33.259Z,99689.97
2022-08-19T06:08:38.286Z,99687.97
2022-08-19T06:09:43.709Z,99695.59
2022-08-19T06:11:18.433Z,99691.97
2022-08-19T06:12:20.619Z,99697.59
2022-08-19T06:13:23.905Z,99690.31
2022-08-19T06:14:29.825Z,99696.75
2022-08-19T06:15:33.214Z,99703.22
2022-08-19T06:16:38.604Z,99704.84
2022-08-19T06:17:43.125Z,99708.84
2022-08-19T06:18:45.299Z,99714.47
2022-08-19T06:19:47.507Z,99715.63
2022-08-19T06:20:55.863Z,99717.28
2022-08-19T06:22:00.941Z,99720.91
2022-08-19T06:23:04.835Z,99722.91
2022-08-19T06:24:10.290Z,99734.97
2022-08-19T06:25:15.677Z,99733.31
2022-08-19T06:26:19.557Z,99734.97
2022-08-19T06:27:22.479Z,99744.69
2022-08-19T06:28:24.804Z,99747.00
2022-08-19T06:29:28.493Z,99736.59
2022-08-19T06:30:30.708Z,99739.41
2022-08-19T06:31:34.936Z,99743.84
2022-08-19T06:32:42.349Z,99748.66
2022-08-19T06:33:45.975Z,99746.66
2022-08-19T06:34:48.260Z,99748.66
2022-08-19T06:35:50.437Z,99754.28
2022-08-19T06:36:53.218Z,99755.94
2022-08-19T06:37:55.706Z,99757.56
2022-08-19T06:38:59.627Z,99757.56
2022-08-19T06:40:01.970Z,99764.00
2022-08-19T06:41:07.767Z,99756.72
2022-08-19T06:42:12.863Z,99758.38
2022-08-19T06:43:18.517Z,99755.56
2022-08-19T06:44:22.792Z,99753.91
2022-08-19T06:45:34.939Z,99751.94
2022-08-19T06:46:42.820Z,99755.56
2022-08-19T06:47:47.150Z,99756.72
2022-08-19T06:48:50.983Z,99757.22
2022-08-19T06:50:03.400Z,99762.00
2022-08-19T06:51:08.782Z,99756.03
2022-08-19T06:52:13.794Z,99761.66
2022-08-19T06:53:16.540Z,99756.03
2022-08-19T06:54:20.334Z,99761.66
2022-08-19T06:55:22.841Z,99763.28
2022-08-19T06:56:35.741Z,99765.28
2022-08-19T06:57:38.209Z,99772.56
2022-08-19T06:58:40.547Z,99771.38
2022-08-19T06:59:42.725Z,99770.56
2022-08-19T07:00:45.017Z,99769.75
2022-08-19T07:01:52.858Z,99773.00
2022-08-19T07:02:59.490Z,99775.81
2022-08-19T07:04:02.634Z,99775.00
2022-08-19T07:05:06.719Z,99774.19
2022-08-19T07:06:32.661Z,99789.06
2022-08-19T07:07:35.729Z,99783.44
2022-08-19T07:08:42.164Z,99787.94
2022-08-19T07:09:46.179Z,99789.59
2022-08-19T07:11:01.236Z,99784.25
2022-08-19T07:12:06.996Z,99769.38
2022-08-19T07:13:09.281Z,99775.00
2022-08-19T07:14:19.258Z,99769.38
2022-08-19T07:15:22.377Z,99769.38
2022-08-19T07:16:29.049Z,99772.19
2022-08-19T07:17:34.705Z,99775.81
2022-08-19T07:18:38.513Z,99775.00
2022-08-19T07:19:42.222Z,99774.19
2022-08-19T07:20:44.410Z,99769.75
2022-08-19T07:21:54.276Z,99769.75
2022-08-19T07:22:56.832Z,99767.75
2022-08-19T07:24:03.001Z,99766.09
2022-08-19T07:25:10.461Z,99764.47
2022-08-19T07:26:20.374Z,99760.47
2022-08-19T07:27:30.731Z,99761.31
2022-08-19T07:28:37.100Z,99762.00
2022-08-19T07:29:39.453Z,99764.00
2022-08-19T07:30:41.894Z,99763.19
2022-08-19T07:31:46.080Z,99760.38
2022-08-19T07:32:48.331Z,99767.97
2022-08-19T07:33:56.353Z,99764.34
2022-08-19T07:34:58.657Z,99766.34
2022-08-19T07:36:00.853Z,99777.59
2022-08-19T07:37:04.857Z,99767.53
2022-08-19T07:38:07.027Z,99775.13
2022-08-19T07:39:12.796Z,99779.94
2022-08-19T07:40:15.276Z,99779.94
2022-08-19T07:41:23.856Z,99787.56
2022-08-19T07:42:26.645Z,99789.53
2022-08-19T07:43:34.962Z,99793.53
2022-08-19T07:46:00.797Z,99796.81
2022-08-19T07:47:04.240Z,99799.63
2022-08-19T07:48:07.288Z,99802.44
2022-08-19T07:49:14.518Z,99798.81
2022-08-19T07:50:19.031Z,99792.00
2022-08-19T07:51:29.535Z,99798.81
2022-08-19T07:52:45.763Z,99797.97
2022-08-19T07:53:51.802Z,99794.00
2022-08-19T07:54:53.974Z,99793.19
2022-08-19T07:55:56.298Z,99798.47
2022-08-19T07:57:00.073Z,99788.03
2022-08-19T07:58:02.356Z,99793.66
2022-08-19T07:59:07.094Z,99796.47
2022-08-19T08:00:09.754Z,99798.09
2022-08-19T08:01:17.553Z,99793.66
2022-08-19T08:02:19.809Z,99794.44
2022-08-19T08:03:43.040Z,99804.91
2022-08-19T08:05:03.934Z,99802.09
2022-08-19T08:06:24.957Z,99808.50
2022-08-19T08:07:49.127Z,99808.50
2022-08-19T08:09:10.016Z,99802.88
2022-08-19T08:10:21.047Z,99802.88
2022-08-19T08:11:24.188Z,99797.25
2022-08-19T08:12:35.372Z,99802.09
2022-08-19T08:13:39.058Z,99798.47
2022-08-19T08:14:44.896Z,99798.47
2022-08-19T08:15:49.371Z,99803.25
2022-08-19T08:16:54.392Z,99790.38
2022-08-19T08:17:58.707Z,99798.81
2022-08-19T08:19:01.490Z,99794.00
2022-08-19T08:20:08.334Z,99790.38
2022-08-19T08:21:11.024Z,99799.63
2022-08-19T08:22:36.117Z,99801.63
2022-08-19T08:23:39.805Z,99806.41
2022-08-19T08:24:42.059Z,99809.22
2022-08-19T08:25:44.259Z,99810.88
2022-08-19T08:26:52.211Z,99819.31
2022-08-19T08:28:01.362Z,99813.22
2022-08-19T08:29:12.532Z,99807.25
2022-08-19T08:30:20.851Z,99808.06
2022-08-19T08:31:24.894Z,99808.06
2022-08-19T08:32:27.156Z,99813.69
2022-08-19T08:33:34.703Z,99814.50
2022-08-19T08:34:38.152Z,99816.94
2022-08-19T08:35:43.274Z,99813.31
2022-08-19T08:36:47.901Z,99820.97
2022-08-19T08:37:53.640Z,99812.53
2022-08-19T08:40:25.972Z,99815.34
2022-08-19T08:42:10.434Z,99818.59
2022-08-19T08:43:32.248Z,99814.97
2022-08-19T08:44:37.787Z,99817.78
2022-08-19T08:45:53.365Z,99816.63
2022-08-19T08:47:02.391Z,99825.06
2022-08-19T08:48:23.904Z,99828.69
2022-08-19T08:49:46.241Z,99823.41
2022-08-19T08:50:51.611Z,99826.66
2022-08-19T08:52:11.010Z,99823.88
2022-08-19T08:53:17.742Z,99820.25
2022-08-19T08:54:37.208Z,99823.06
2022-08-19T08:55:41.692Z,99832.28
2022-08-19T08:56:47.141Z,99830.31
2022-08-19T08:57:52.303Z,99838.41
2022-08-19T08:59:02.838Z,99830.31
2022-08-19T09:00:15.214Z,99837.59
2022-08-19T09:01:18.312Z,99842.03
2022-08-19T09:02:20.846Z,99837.25
2022-08-19T09:03:27.675Z,99837.69
2022-08-19T09:04:36.325Z,99836.88
2022-08-19T09:05:57.130Z,99829.25
2022-08-19T09:07:35.231Z,99833.75
2022-08-19T09:09:15.040Z,99831.41
2022-08-19T09:10:44.422Z,99836.69
2022-08-19T09:11:59.094Z,99833.88
2022-08-19T09:13:28.558Z,99839.97
2022-08-19T09:14:56.850Z,99837.16
2022-08-19T09:16:07.711Z,99834.78
2022-08-19T09:17:10.828Z,99833.63
2022-08-19T09:18:15.349Z,99841.72
2022-08-19T09:19:22.532Z,99841.72
2022-08-19T09:20:26.108Z,99835.72
2022-08-19T09:21:33.200Z,99839.00
2022-08-19T09:22:38.099Z,99840.66
2022-08-19T09:23:40.907Z,99837.50
2022-08-19T09:24:43.196Z,99839.13
2022-08-19T09:25:45.369Z,99842.75
2022-08-19T09:26:52.785Z,99843.22
2022-08-19T09:28:02.433Z,99836.41
2022-08-19T09:29:06.852Z,99826.00
2022-08-19T09:30:11.371Z,99825.63
2022-08-19T09:31:16.824Z,99826.44
2022-08-19T09:32:26.705Z,99828.56
2022-08-19T09:33:30.191Z,99826.56
2022-08-19T09:34:38.049Z,99817.75
2022-08-19T09:35:52.826Z,99819.41
2022-08-19T09:36:59.303Z,99813.41
2022-08-19T09:38:02.794Z,99804.97
2022-08-19T09:39:16.097Z,99806.25
2022-08-19T09:40:19.589Z,99794.69
2022-08-19T09:41:24.511Z,99792.19
2022-08-19T09:42:30.357Z,99800.75
2022-08-19T09:43:44.377Z,99804.38
2022-08-19T09:44:47.321Z,99798.41
2022-08-19T09:45:50.011Z,99802.03
2022-08-19T09:46:52.469Z,99806.13
2022-08-19T09:47:55.594Z,99802.16
2022-08-19T09:49:06.282Z,99802.97
2022-08-19T09:50:11.919Z,99805.78
2022-08-19T09:51:24.088Z,99795.69
2022-08-19T09:52:26.302Z,99800.97
2022-08-19T09:53:35.939Z,99796.53
2022-08-19T09:54:40.246Z,99800.63
2022-08-19T09:55:46.451Z,99811.50
2022-08-19T09:56:49.381Z,99815.13
2022-08-19T09:57:55.167Z,99810.34
2022-08-19T09:59:00.635Z,99814.44
2022-08-19T10:00:06.262Z,99816.09
2022-08-19T10:01:10.504Z,99809.63
2022-08-19T10:02:13.098Z,99809.25
2022-08-19T10:03:15.305Z,99811.75
2022-08-19T10:04:20.007Z,99816.16
2022-08-19T10:05:43.409Z,99810.22
2022-08-19T10:06:47.104Z,99813.03
2022-08-19T10:07:50.469Z,99807.03
2022-08-19T10:08:53.597Z,99815.13
2022-08-19T10:09:55.800Z,99824.38
2022-08-19T10:10:59.271Z,99817.56
2022-08-19T10:12:04.063Z,99816.41
2022-08-19T10:13:06.650Z,99818.38
2022-08-19T10:14:10.404Z,99819.66
2022-08-19T10:15:13.151Z,99822.47
2022-08-19T10:16:20.861Z,99822.94
2022-08-19T10:17:26.775Z,99815.31
2022-08-19T10:18:37.825Z,99819.44
2022-08-19T10:19:40.333Z,99819.09
2022-08-19T10:20:44.691Z,99819.56
2022-08-19T10:21:46.857Z,99814.75
2022-08-19T10:22:51.861Z,99815.19
2022-08-19T10:23:58.775Z,99820.13
2022-08-19T10:25:02.058Z,99818.13
2022-08-19T10:26:07.175Z,99823.38
2022-08-19T10:27:11.107Z,99825.47
2022-08-19T10:28:13.295Z,99825.16
2022-08-19T10:29:32.482Z,99827.22
2022-08-19T10:30:43.021Z,99825.69
2022-08-19T10:32:00.039Z,99831.44
2022-08-19T10:33:10.866Z,99827.09
2022-08-19T10:34:27.029Z,99830.00
2022-08-19T10:35:32.609Z,99841.00
2022-08-19T10:36:56.508Z,99841.09
2022-08-19T10:38:04.330Z,99848.84
2022-08-19T10:39:09.759Z,99848.91
2022-08-19T10:40:12.819Z,99844.22
2022-08-19T10:41:19.583Z,99837.06
2022-08-19T10:42:22.451Z,99844.78
2022-08-19T10:43:25.931Z,99845.22
2022-08-19T10:44:32.328Z,99846.16
2022-08-19T10:45:34.926Z,99848.63
2022-08-19T10:46:46.070Z,99843.09
2022-08-19T10:47:50.602Z,99848.00
2022-08-19T10:48:54.382Z,99845.28
2022-08-19T10:50:15.426Z,99838.91
2022-08-19T10:51:36.681Z,99841.47
2022-08-19T10:52:50.938Z,99839.56
2022-08-19T10:53:53.221Z,99840.03
2022-08-19T10:55:14.179Z,99844.94
2022-08-19T10:56:35.250Z,99848.66
2022-08-19T10:57:59.275Z,99841.13
2022-08-19T10:59:02.272Z,99849.22
2022-08-19T11:00:05.039Z,99849.66
2022-08-19T11:01:07.263Z,99860.94
2022-08-19T11:02:13.136Z,99862.59
2022-08-19T11:03:15.376Z,99856.94
2022-08-19T11:04:18.933Z,99863.06
2022-08-19T11:05:24.167Z,99854.22
2022-08-19T11:06:26.649Z,99852.19
2022-08-19T11:07:28.935Z,99850.66
2022-08-19T11:08:32.157Z,99854.75
2022-08-19T11:09:40.125Z,99854.03
2022-08-19T11:10:43.925Z,99866.22
2022-08-19T11:11:54.355Z,99864.31
2022-08-19T11:12:57.592Z,99862.75
2022-08-19T11:14:00.091Z,99864.50
2022-08-19T11:15:02.955Z,99855.75
2022-08-19T11:16:14.419Z,99857.88
2022-08-19T11:17:17.569Z,99851.94
2022-08-19T11:18:19.756Z,99851.19
2022-08-19T11:19:22.117Z,99857.38
2022-08-19T11:20:25.061Z,99854.63
2022-08-19T11:21:35.949Z,99864.84
2022-08-19T11:22:41.658Z,99864.91
2022-08-19T11:23:45.036Z,99863.00
2022-08-19T11:24:47.260Z,99872.72
2022-08-19T11:25:50.644Z,99876.44
2022-08-19T11:27:00.245Z,99880.53
2022-08-19T11:28:03.327Z,99871.31
2022-08-19T11:29:12.848Z,99876.59
2022-08-19T11:30:16.188Z,99875.03
2022-08-19T11:31:21.009Z,99869.03
2022-08-19T11:32:23.369Z,99873.13
2022-08-19T11:33:27.358Z,99874.41
2022-08-19T11:34:30.315Z,99877.69
2022-08-19T11:35:36.542Z,99878.50
2022-08-19T11:36:43.650Z,99885.78
2022-08-19T11:37:45.842Z,99884.59
2022-08-19T11:38:51.359Z,99886.25
2022-08-19T11:39:54.709Z,99883.44
2022-08-19T11:40:59.004Z,99888.25
2022-08-19T11:42:03.413Z,99888.63
2022-08-19T11:43:05.611Z,99892.28
2022-08-19T11:44:08.852Z,99887.44
2022-08-19T11:45:11.717Z,99883.34
2022-08-19T11:46:16.809Z,99885.34
2022-08-19T11:47:19.437Z,99877.22
2022-08-19T11:48:24.780Z,99888.53
2022-08-19T11:49:27.416Z,99888.88
2022-08-19T11:50:30.869Z,99872.75
2022-08-19T11:51:33.429Z,99877.56
2022-08-19T11:52:35.756Z,99873.13
2022-08-19T11:53:39.423Z,99874.31
2022-08-19T11:54:41.618Z,99875.50
2022-08-19T11:55:44.235Z,99876.69
2022-08-19T11:56:48.905Z,99876.25
2022-08-19T11:57:51.199Z,99875.41
2022-08-19T11:58:54.602Z,99875.41
2022-08-19T11:59:56.794Z,99870.50
2022-08-19T12:00:59.070Z,99878.53
2022-08-19T12:02:01.325Z,99881.72
2022-08-19T12:03:04.010Z,99871.59
2022-08-19T12:04:06.833Z,99878.81
2022-08-19T12:05:12.528Z,99880.38
2022-08-19T12:06:39.242Z,99886.38
2022-08-19T12:07:43.713Z,99880.66
2022-08-19T12:08:46.730Z,99883.03
2022-08-19T12:09:48.925Z,99885.78
2022-08-19T12:10:51.095Z,99886.13
2022-08-19T12:11:53.293Z,99888.50
2022-08-19T12:12:58.717Z,99882.06
2022-08-19T12:14:01.226Z,99883.59
2022-08-19T12:15:03.876Z,99901.72
2022-08-19T12:16:21.254Z,99901.25
2022-08-19T12:17:28.168Z,99902.47
2022-08-19T12:18:30.470Z,99908.44
2022-08-19T12:19:32.729Z,99900.34
2022-08-19T12:20:40.935Z,99901.56
2022-08-19T12:21:43.165Z,99909.56
2022-08-19T12:22:45.367Z,99910.72
2022-08-19T12:23:52.678Z,99911.91
2022-08-19T12:24:59.430Z,99915.94
2022-08-19T12:26:01.681Z,99914.28
2022-08-19T12:27:04.011Z,99912.66
2022-08-19T12:28:06.585Z,99915.00
2022-08-19T12:29:09.557Z,99917.84
2022-08-19T12:30:13.595Z,99909.75
2022-08-19T12:31:16.296Z,99903.28
2022-08-19T12:32:18.557Z,99909.31
2022-08-19T12:33:25.098Z,99910.47
2022-08-19T12:34:31.148Z,99908.03
2022-08-19T12:35:33.325Z,99912.81
2022-08-19T12:36:35.618Z,99912.00
2022-08-19T12:37:38.609Z,99912.38
2022-08-19T12:38:41.567Z,99920.81
2022-08-19T12:39:44.749Z,99915.53
2022-08-19T12:40:48.003Z,99911.91
2022-08-19T12:41:55.068Z,99912.69
2022-08-19T12:42:57.436Z,99912.69
2022-08-19T12:43:59.849Z,99907.06
2022-08-19T12:45:03.276Z,99906.25
2022-08-19T12:46:10.862Z,99905.44
2022-08-19T12:47:15.393Z,99909.44
2022-08-19T12:48:31.444Z,99904.19
2022-08-19T12:49:53.315Z,99911.00
2022-08-19T12:50:57.805Z,99915.00
2022-08-19T12:52:04.576Z,99920.63
2022-08-19T12:53:06.799Z,99920.63
2022-08-19T12:54:09.240Z,99918.97
2022-08-19T12:55:12.620Z,99922.19
2022-08-19T12:56:22.278Z,99926.63
2022-08-19T12:57:33.246Z,99923.34